Time;durP1;ratioP1;P1;durP2;ratioP2;P2;SDS_P1;SDS_P2;PMS_P1;PMS_P2;Temp;Humidity;BMP_temperature;BMP_pressure;BME280_temperature;BME280_humidity;BME280_pressure;Samples;Min_cycle;Max_cycle;Signal;HPM_P1;HPM_P2
2022/11/27 00:01:44;;;;;;;12.55;3.70;;;5.10;99.90;;;;;;6130611;19;19927;-68
2022/11/27 00:03:48;;;;;;;16.38;4.78;;;5.00;99.90;;;;;;6130374;19;19923;-67
2022/11/27 00:05:56;;;;;;;13.27;4.72;;;5.20;99.90;;;;;;6130466;19;19934;-68
2022/11/27 00:08:00;;;;;;;9.05;3.90;;;4.90;99.90;;;;;;6130549;19;19947;-67
2022/11/27 00:10:08;;;;;;;11.85;3.80;;;5.00;99.90;;;;;;6129066;19;19950;-67
2022/11/27 00:12:12;;;;;;;13.57;3.85;;;5.10;99.90;;;;;;6127666;19;20397;-68
2022/11/27 00:14:17;;;;;;;11.45;3.65;;;5.10;99.90;;;;;;6130210;19;19918;-67
2022/11/27 00:16:23;;;;;;;12.70;3.72;;;5.10;99.90;;;;;;6129614;19;19951;-67
2022/11/27 00:18:27;;;;;;;15.10;4.57;;;5.40;99.90;;;;;;6127114;19;19926;-68
2022/11/27 00:20:31;;;;;;;11.00;4.47;;;;;;;;;;6129307;19;20541;-66
2022/11/27 00:22:35;;;;;;;16.10;4.43;;;4.80;99.90;;;;;;6129693;19;19915;-67
2022/11/27 00:24:39;;;;;;;12.25;4.00;;;5.00;99.90;;;;;;6130311;19;19910;-67
2022/11/27 00:26:46;;;;;;;13.95;4.10;;;5.10;99.90;;;;;;6128321;19;20337;-66
2022/11/27 00:28:50;;;;;;;12.70;3.85;;;;;;;;;;6125990;19;19966;-66
2022/11/27 00:30:54;;;;;;;10.82;3.63;;;;;;;;;;6129343;19;19918;-66
2022/11/27 00:32:58;;;;;;;15.82;4.40;;;5.20;99.90;;;;;;6129539;19;19943;-67
2022/11/27 00:35:01;;;;;;;11.38;3.85;;;5.00;99.90;;;;;;6128896;19;19939;-66
2022/11/27 00:37:06;;;;;;;10.60;3.95;;;4.90;99.90;;;;;;6128096;19;19922;-67
2022/11/27 00:39:09;;;;;;;11.88;3.88;;;5.10;99.90;;;;;;6128976;19;19921;-67
2022/11/27 00:41:16;;;;;;;13.20;3.63;;;5.00;99.90;;;;;;6128187;19;20258;-67
2022/11/27 00:43:22;;;;;;;8.60;3.55;;;4.80;99.90;;;;;;6129682;19;19919;-66
2022/11/27 00:45:27;;;;;;;9.15;3.92;;;5.30;99.90;;;;;;6130391;19;19940;-66
2022/11/27 00:47:31;;;;;;;9.35;3.40;;;5.30;99.90;;;;;;6129604;19;20351;-66
2022/11/27 00:49:35;;;;;;;9.77;4.05;;;;;;;;;;6129233;19;19925;-67
2022/11/27 00:51:39;;;;;;;12.35;3.92;;;;;;;;;;6129994;19;19986;-67
2022/11/27 00:53:43;;;;;;;12.75;4.05;;;4.90;99.90;;;;;;6128047;19;19922;-67
2022/11/27 00:55:48;;;;;;;14.07;3.85;;;4.80;99.90;;;;;;6128040;19;19923;-67
2022/11/27 00:57:51;;;;;;;14.70;4.40;;;4.90;99.90;;;;;;6128634;19;19918;-67
2022/11/27 00:59:58;;;;;;;14.77;5.18;;;4.90;99.90;;;;;;6127066;19;21729;-67
2022/11/27 01:02:02;;;;;;;9.27;3.63;;;4.80;99.90;;;;;;6129811;19;19919;-66
2022/11/27 01:04:08;;;;;;;12.00;4.20;;;5.00;99.90;;;;;;6127442;19;19930;-66
2022/11/27 01:06:12;;;;;;;9.35;3.97;;;;;;;;;;6129426;19;19925;-66
2022/11/27 01:08:16;;;;;;;14.93;4.28;;;;;;;;;;6128784;19;20336;-67
2022/11/27 01:10:20;;;;;;;9.68;3.58;;;4.80;99.90;;;;;;6129928;19;19939;-66
2022/11/27 01:12:24;;;;;;;14.90;4.30;;;;;;;;;;6128628;19;19927;-66
2022/11/27 01:14:28;;;;;;;7.43;3.97;;;4.90;99.90;;;;;;6128438;19;19926;-67
2022/11/27 01:16:36;;;;;;;13.07;3.75;;;5.20;99.90;;;;;;6126488;19;19923;-67
2022/11/27 01:18:42;;;;;;;10.30;3.80;;;4.90;99.90;;;;;;6128053;19;19922;-67
2022/11/27 01:20:46;;;;;;;7.63;3.33;;;5.20;99.90;;;;;;6128120;19;19939;-67
2022/11/27 01:22:50;;;;;;;12.80;3.85;;;;;;;;;;6127577;19;19923;-66
2022/11/27 01:24:54;;;;;;;10.80;4.45;;;;;;;;;;6126832;19;20295;-66
2022/11/27 01:26:58;;;;;;;11.73;4.05;;;4.70;99.90;;;;;;6123287;19;20396;-67
2022/11/27 01:29:02;;;;;;;13.63;3.85;;;4.90;99.90;;;;;;6129000;19;19926;-67
2022/11/27 01:31:07;;;;;;;11.20;3.75;;;4.70;99.90;;;;;;6126934;19;19918;-66
2022/11/27 01:33:14;;;;;;;14.70;3.85;;;4.80;99.90;;;;;;6128848;19;19914;-67
2022/11/27 01:35:18;;;;;;;10.27;3.67;;;4.80;99.90;;;;;;6128605;19;20025;-67
2022/11/27 01:37:22;;;;;;;8.68;3.83;;;;;;;;;;6126273;19;19918;-68
2022/11/27 01:39:26;;;;;;;12.18;3.58;;;4.50;99.90;;;;;;6126810;19;19923;-68
2022/11/27 01:41:32;;;;;;;10.25;3.63;;;4.80;99.90;;;;;;6127498;19;19918;-67
2022/11/27 01:43:42;;;;;;;12.25;4.88;;;4.70;99.90;;;;;;6126046;19;19935;-68
2022/11/27 01:45:47;;;;;;;12.07;4.00;;;4.70;99.90;;;;;;6126483;19;20349;-67
2022/11/27 01:47:54;;;;;;;11.90;3.95;;;4.50;99.90;;;;;;6125428;19;20334;-67
2022/11/27 01:50:08;;;;;;;14.23;3.60;;;4.50;99.90;;;;;;6129196;19;19919;-67
2022/11/27 01:52:15;;;;;;;12.23;4.47;;;4.60;99.90;;;;;;6128062;19;19943;-67
2022/11/27 01:54:20;;;;;;;13.70;3.65;;;4.80;99.90;;;;;;6125557;19;19930;-68
2022/11/27 01:56:25;;;;;;;8.90;3.85;;;4.60;99.90;;;;;;6127685;19;19918;-68
2022/11/27 01:58:31;;;;;;;14.07;3.88;;;4.50;99.90;;;;;;6125392;19;19919;-68
2022/11/27 02:00:36;;;;;;;10.93;4.03;;;4.70;99.90;;;;;;6127070;19;20246;-67
2022/11/27 02:02:40;;;;;;;11.52;4.28;;;4.40;99.90;;;;;;6127225;19;19933;-67
2022/11/27 02:04:44;;;;;;;9.68;3.95;;;;;;;;;;6124006;19;19922;-68
2022/11/27 02:06:50;;;;;;;7.05;3.55;;;4.40;99.90;;;;;;6126398;19;19923;-67
2022/11/27 02:08:55;;;;;;;13.45;4.50;;;4.60;99.90;;;;;;6127568;19;19923;-67
2022/11/27 02:11:04;;;;;;;10.30;3.50;;;4.40;99.90;;;;;;6127499;19;19955;-67
2022/11/27 02:13:11;;;;;;;14.05;3.60;;;4.30;99.90;;;;;;6127493;19;19955;-66
2022/11/27 02:15:22;;;;;;;10.25;4.50;;;4.70;99.90;;;;;;6118883;19;20018;-66
2022/11/27 02:17:37;;;;;;;8.77;3.83;;;4.10;99.90;;;;;;6125375;19;19927;-66
2022/11/27 02:19:58;;;;;;;8.90;3.65;;;4.00;99.90;;;;;;6125314;19;19936;-66
2022/11/27 02:22:10;;;;;;;11.25;3.78;;;4.70;99.90;;;;;;6126698;19;19926;-67
2022/11/27 02:24:38;;;;;;;10.25;3.97;;;4.60;99.90;;;;;;6126587;19;19923;-67
2022/11/27 02:27:06;;;;;;;11.88;3.45;;;4.00;99.90;;;;;;6125948;19;19923;-67
2022/11/27 02:29:15;;;;;;;8.73;3.95;;;4.50;99.90;;;;;;6127043;19;19944;-67
2022/11/27 02:31:23;;;;;;;12.35;3.95;;;4.50;99.90;;;;;;6126379;19;19923;-67
2022/11/27 02:33:30;;;;;;;6.40;3.28;;;4.20;99.90;;;;;;6126449;19;19923;-66
2022/11/27 02:35:43;;;;;;;8.48;4.00;;;4.40;99.90;;;;;;6125928;19;19946;-67
2022/11/27 02:37:50;;;;;;;9.07;3.33;;;3.90;99.90;;;;;;6127442;19;19919;-67
2022/11/27 02:40:03;;;;;;;12.15;3.83;;;4.30;99.90;;;;;;6125040;19;19941;-67
2022/11/27 02:42:13;;;;;;;13.65;3.60;;;4.80;99.90;;;;;;6124690;19;19943;-67
2022/11/27 02:44:21;;;;;;;14.70;3.88;;;4.40;99.90;;;;;;6126152;19;19921;-66
2022/11/27 02:46:28;;;;;;;7.63;3.40;;;4.20;99.90;;;;;;6126209;19;19918;-67
2022/11/27 02:48:35;;;;;;;7.68;3.28;;;4.00;99.90;;;;;;6125718;19;19927;-67
2022/11/27 02:50:42;;;;;;;10.10;3.35;;;4.20;99.90;;;;;;6125962;19;19919;-67
2022/11/27 02:52:47;;;;;;;9.40;3.72;;;4.40;99.90;;;;;;6126916;19;19922;-67
2022/11/27 02:54:53;;;;;;;8.52;3.63;;;4.20;99.90;;;;;;6125042;19;19965;-67
2022/11/27 02:56:59;;;;;;;12.13;3.92;;;4.10;99.90;;;;;;6120935;19;20356;-67
2022/11/27 02:59:08;;;;;;;13.40;3.60;;;4.00;99.90;;;;;;6123615;19;19955;-67
2022/11/27 03:01:16;;;;;;;11.35;3.85;;;4.00;99.90;;;;;;6126190;19;19922;-66
2022/11/27 03:03:23;;;;;;;10.27;3.45;;;4.30;99.90;;;;;;6125252;19;19919;-67
2022/11/27 03:05:31;;;;;;;10.05;3.22;;;4.00;99.90;;;;;;6125403;19;19915;-67
2022/11/27 03:07:43;;;;;;;10.45;3.55;;;4.10;99.90;;;;;;6123675;19;19926;-66
2022/11/27 03:09:50;;;;;;;13.23;3.33;;;3.90;99.90;;;;;;6125395;19;19922;-67
2022/11/27 03:11:54;;;;;;;11.30;3.13;;;4.10;99.90;;;;;;6124285;19;19929;-66
2022/11/27 03:14:03;;;;;;;11.20;3.65;;;4.10;99.90;;;;;;6125037;19;19918;-66
2022/11/27 03:16:21;;;;;;;8.48;3.00;;;3.90;99.90;;;;;;6126042;19;19918;-66
2022/11/27 03:18:36;;;;;;;5.57;3.03;;;3.90;99.90;;;;;;6131164;19;19919;-66
2022/11/27 03:20:40;;;;;;;;;;;4.10;99.90;;;;;;6130248;19;19955;-66
2022/11/27 03:22:44;;;;;;;8.73;3.10;;;3.40;99.90;;;;;;6131578;19;19929;-66
2022/11/27 03:24:48;;;;;;;7.38;3.05;;;3.70;99.90;;;;;;6131085;19;20345;-67
2022/11/27 03:26:53;;;;;;;7.93;3.17;;;4.30;99.90;;;;;;6128324;19;19923;-66
2022/11/27 03:28:58;;;;;;;7.55;3.00;;;3.80;99.90;;;;;;6130509;19;19922;-66
2022/11/27 03:31:02;;;;;;;8.80;3.55;;;;;;;;;;6131311;19;19926;-66
2022/11/27 03:33:09;;;;;;;12.32;3.60;;;4.00;99.90;;;;;;6130290;19;19919;-67
2022/11/27 03:35:16;;;;;;;8.50;3.90;;;4.10;99.90;;;;;;6131280;19;19944;-67
2022/11/27 03:37:20;;;;;;;6.13;3.50;;;;;;;;;;6130349;19;19923;-68
2022/11/27 03:39:25;;;;;;;10.02;3.53;;;4.00;99.90;;;;;;6129594;19;19925;-67
2022/11/27 03:41:42;;;;;;;8.63;3.33;;;3.90;99.90;;;;;;6130766;19;19939;-67
2022/11/27 03:43:58;;;;;;;8.18;3.40;;;3.80;99.90;;;;;;6131321;19;19918;-66
2022/11/27 03:46:07;;;;;;;6.75;3.10;;;3.50;99.90;;;;;;6130564;19;19915;-65
2022/11/27 03:48:23;;;;;;;15.15;3.33;;;3.90;99.90;;;;;;6131464;19;20260;-66
2022/11/27 03:50:37;;;;;;;7.82;3.28;;;4.00;99.90;;;;;;6128204;19;19929;-66
2022/11/27 03:52:54;;;;;;;8.55;3.67;;;4.20;99.90;;;;;;6130963;19;19943;-66
2022/11/27 03:55:06;;;;;;;7.80;3.10;;;4.20;99.90;;;;;;6130989;19;20684;-66
2022/11/27 03:57:16;;;;;;;6.82;3.05;;;4.00;99.90;;;;;;6128493;19;19926;-65
2022/11/27 03:59:25;;;;;;;13.10;2.97;;;4.00;99.90;;;;;;6127209;19;19919;-66
2022/11/27 04:01:30;;;;;;;9.05;3.15;;;4.10;99.90;;;;;;6129091;19;19919;-66
2022/11/27 04:03:37;;;;;;;7.18;3.63;;;4.10;99.90;;;;;;6130070;19;19965;-66
2022/11/27 04:05:41;;;;;;;10.55;3.20;;;;;;;;;;6127828;19;20310;-66
2022/11/27 04:07:45;;;;;;;6.55;3.25;;;3.80;99.90;;;;;;6129942;19;20368;-67
2022/11/27 04:09:49;;;;;;;7.15;3.20;;;4.00;99.90;;;;;;6123348;19;20043;-67
2022/11/27 04:11:52;;;;;;;12.20;3.40;;;4.30;99.90;;;;;;6128289;19;19947;-66
2022/11/27 04:13:57;;;;;;;8.05;3.20;;;;;;;;;;6130567;19;20416;-65
2022/11/27 04:16:02;;;;;;;6.65;3.25;;;4.00;99.90;;;;;;6129856;19;19923;-67
2022/11/27 04:18:06;;;;;;;9.15;3.08;;;4.10;99.90;;;;;;6129563;19;19947;-67
2022/11/27 04:20:15;;;;;;;10.00;3.17;;;4.30;99.90;;;;;;6128795;19;19922;-67
2022/11/27 04:22:19;;;;;;;9.05;3.17;;;3.60;99.90;;;;;;6130185;19;20022;-67
2022/11/27 04:24:23;;;;;;;7.68;3.00;;;;;;;;;;6129920;19;19943;-67
2022/11/27 04:26:27;;;;;;;7.53;3.70;;;4.10;99.90;;;;;;6130251;19;19914;-67
2022/11/27 04:28:30;;;;;;;5.68;3.22;;;4.20;99.90;;;;;;6124956;19;19923;-67
2022/11/27 04:30:34;;;;;;;10.73;3.28;;;4.10;99.90;;;;;;6129083;19;19922;-67
2022/11/27 04:32:38;;;;;;;8.98;3.15;;;3.80;99.90;;;;;;6130205;19;19926;-67
2022/11/27 04:34:42;;;;;;;7.43;2.92;;;;;;;;;;6125997;19;19926;-67
2022/11/27 04:36:49;;;;;;;6.93;2.95;;;3.90;99.90;;;;;;6130178;19;19922;-66
2022/11/27 04:38:53;;;;;;;8.50;3.38;;;;;;;;;;6129332;19;19939;-66
2022/11/27 04:40:56;;;;;;;6.63;3.03;;;3.90;99.90;;;;;;6127484;19;19943;-66
2022/11/27 04:43:01;;;;;;;14.98;2.97;;;;;;;;;;6129354;19;19923;-66
2022/11/27 04:45:05;;;;;;;9.23;2.55;;;4.40;99.90;;;;;;6127251;19;19925;-67
2022/11/27 04:47:09;;;;;;;9.63;3.25;;;;;;;;;;6127979;19;20374;-66
2022/11/27 04:49:14;;;;;;;8.15;2.75;;;4.70;99.90;;;;;;6128445;19;20435;-66
2022/11/27 04:51:18;;;;;;;9.02;2.90;;;4.10;99.90;;;;;;6129100;19;19939;-66
2022/11/27 04:53:24;;;;;;;5.38;2.28;;;3.90;99.90;;;;;;6128533;19;19922;-66
2022/11/27 04:55:28;;;;;;;7.53;2.53;;;4.20;99.90;;;;;;6128359;19;19933;-66
2022/11/27 04:57:32;;;;;;;12.52;2.53;;;;;;;;;;6125706;19;19922;-67
2022/11/27 04:59:36;;;;;;;7.38;2.65;;;4.60;99.90;;;;;;6129790;19;19923;-67
2022/11/27 05:01:40;;;;;;;8.73;3.10;;;4.20;99.90;;;;;;6128717;19;19947;-67
2022/11/27 05:03:45;;;;;;;8.90;2.55;;;;;;;;;;6128522;19;19943;-67
2022/11/27 05:05:56;;;;;;;13.68;3.58;;;4.30;99.90;;;;;;6128041;19;20282;-66
2022/11/27 05:08:00;;;;;;;7.53;2.85;;;;;;;;;;6126993;19;19922;-67
2022/11/27 05:10:08;;;;;;;12.13;3.13;;;3.90;99.90;;;;;;6129142;19;19918;-67
2022/11/27 05:12:12;;;;;;;8.25;2.40;;;4.40;99.90;;;;;;6126124;19;19911;-67
2022/11/27 05:14:21;;;;;;;6.50;2.55;;;;;;;;;;6128133;19;20697;-67
2022/11/27 05:16:25;;;;;;;7.07;2.92;;;4.20;99.90;;;;;;6128650;19;19922;-66
2022/11/27 05:18:29;;;;;;;8.90;2.65;;;4.20;99.90;;;;;;6128129;19;20326;-67
2022/11/27 05:20:33;;;;;;;5.30;2.67;;;4.40;99.90;;;;;;6124649;19;19922;-67
2022/11/27 05:22:37;;;;;;;7.35;3.10;;;4.60;99.90;;;;;;6126123;19;19926;-67
2022/11/27 05:24:41;;;;;;;6.38;2.60;;;4.50;99.90;;;;;;6103373;19;19914;-67
2022/11/27 05:26:48;;;;;;;14.60;3.03;;;4.30;99.90;;;;;;6115893;19;20369;-67
2022/11/27 05:28:52;;;;;;;6.45;2.38;;;4.20;99.90;;;;;;6127212;19;20004;-66
2022/11/27 05:30:56;;;;;;;7.95;2.58;;;4.50;99.90;;;;;;6128163;19;19923;-67
2022/11/27 05:32:59;;;;;;;7.53;3.15;;;4.40;99.90;;;;;;6128921;19;19939;-67
2022/11/27 05:35:03;;;;;;;4.68;2.42;;;;;;;;;;6126993;19;20625;-67
2022/11/27 05:37:08;;;;;;;6.93;2.60;;;;;;;;;;6128514;19;20333;-67
2022/11/27 05:39:13;;;;;;;10.27;2.92;;;3.90;99.90;;;;;;6126277;19;20353;-67
2022/11/27 05:41:17;;;;;;;6.50;2.70;;;4.60;99.90;;;;;;6126326;19;19935;-67
2022/11/27 05:43:23;;;;;;;10.32;2.47;;;4.20;99.90;;;;;;6128462;19;19922;-67
2022/11/27 05:45:27;;;;;;;8.98;3.03;;;;;;;;;;6127345;19;19939;-67
2022/11/27 05:47:31;;;;;;;6.32;2.60;;;4.40;99.90;;;;;;6126367;19;20358;-67
2022/11/27 05:49:37;;;;;;;6.75;2.95;;;4.40;99.90;;;;;;6128424;19;19976;-67
2022/11/27 05:51:41;;;;;;;8.52;2.47;;;4.40;99.90;;;;;;6127992;19;19974;-67
2022/11/27 05:53:46;;;;;;;11.73;3.45;;;4.30;99.90;;;;;;6126907;19;20001;-67
2022/11/27 05:55:50;;;;;;;7.88;2.35;;;4.40;99.90;;;;;;6126864;19;19925;-65
2022/11/27 05:57:54;;;;;;;8.50;3.15;;;;;;;;;;6126573;19;19923;-66
2022/11/27 06:00:00;;;;;;;7.57;2.30;;;4.60;99.90;;;;;;6125512;19;19922;-67
2022/11/27 06:02:04;;;;;;;9.88;2.60;;;3.90;99.90;;;;;;6128127;19;19958;-67
2022/11/27 06:04:08;;;;;;;7.10;2.17;;;;;;;;;;6127052;19;19981;-67
2022/11/27 06:06:15;;;;;;;8.00;2.80;;;4.00;99.90;;;;;;6127176;19;19929;-67
2022/11/27 06:08:19;;;;;;;7.03;2.20;;;4.10;99.90;;;;;;6127535;19;19914;-67
2022/11/27 06:10:23;;;;;;;6.43;2.25;;;4.30;99.90;;;;;;6125153;19;19923;-67
2022/11/27 06:12:27;;;;;;;7.93;2.88;;;4.10;99.90;;;;;;6124504;19;20816;-66
2022/11/27 06:14:33;;;;;;;8.40;3.17;;;4.50;99.90;;;;;;6127297;19;19919;-67
2022/11/27 06:16:40;;;;;;;4.07;2.03;;;4.20;99.90;;;;;;6126321;19;19922;-67
2022/11/27 06:18:44;;;;;;;5.85;2.30;;;4.00;99.90;;;;;;6126635;19;19923;-66
2022/11/27 06:20:48;;;;;;;5.75;2.80;;;4.20;99.90;;;;;;6125984;19;19937;-66
2022/11/27 06:22:52;;;;;;;9.00;2.30;;;4.00;99.90;;;;;;6125191;19;19919;-67
2022/11/27 06:24:56;;;;;;;10.55;2.70;;;;;;;;;;6127980;19;19943;-66
2022/11/27 06:27:00;;;;;;;8.93;3.03;;;3.80;99.90;;;;;;6125759;19;20012;-66
2022/11/27 06:29:05;;;;;;;5.18;2.75;;;3.90;99.90;;;;;;6126795;19;19918;-66
2022/11/27 06:31:11;;;;;;;4.78;1.88;;;4.40;99.90;;;;;;6127517;19;19939;-67
2022/11/27 06:33:17;;;;;;;3.95;2.40;;;4.50;99.90;;;;;;6126690;19;19943;-66
2022/11/27 06:35:21;;;;;;;6.70;2.35;;;4.00;99.90;;;;;;6126403;19;19923;-66
2022/11/27 06:37:26;;;;;;;7.13;2.65;;;;;;;;;;6126913;19;20304;-67
2022/11/27 06:39:30;;;;;;;6.45;2.33;;;;;;;;;;6125711;19;19927;-66
2022/11/27 06:41:34;;;;;;;8.38;2.67;;;;;;;;;;6126028;19;20390;-67
2022/11/27 06:43:38;;;;;;;5.53;2.63;;;3.80;99.90;;;;;;6126778;19;19947;-65
2022/11/27 06:45:42;;;;;;;5.75;2.13;;;4.20;99.90;;;;;;6125262;19;19918;-65
2022/11/27 06:47:46;;;;;;;9.38;3.08;;;3.80;99.90;;;;;;6124102;19;20297;-66
2022/11/27 06:49:53;;;;;;;6.05;2.67;;;4.20;99.90;;;;;;6126035;19;20365;-67
2022/11/27 06:51:57;;;;;;;9.63;2.90;;;;;;;;;;6133004;19;19961;-67
2022/11/27 06:54:02;;;;;;;11.15;3.75;;;4.10;99.90;;;;;;6138530;19;19918;-67
2022/11/27 06:56:07;;;;;;;12.05;3.15;;;3.90;99.90;;;;;;6134941;19;19939;-67
2022/11/27 06:58:11;;;;;;;8.73;2.55;;;;;;;;;;6137934;19;20333;-67
2022/11/27 07:00:19;;;;;;;10.88;3.03;;;3.90;99.90;;;;;;6132395;19;20365;-68
2022/11/27 07:02:23;;;;;;;7.13;2.53;;;4.30;99.90;;;;;;6138263;19;19925;-67
2022/11/27 07:04:27;;;;;;;5.60;2.63;;;;;;;;;;6135062;19;19922;-68
2022/11/27 07:06:34;;;;;;;7.10;2.72;;;4.00;99.90;;;;;;6137359;19;19947;-68
2022/11/27 07:08:39;;;;;;;6.30;2.67;;;4.10;99.90;;;;;;6137258;19;19922;-68
2022/11/27 07:10:43;;;;;;;5.80;2.35;;;4.10;99.90;;;;;;6136891;19;19951;-69
2022/11/27 07:12:47;;;;;;;8.98;2.85;;;4.40;99.90;;;;;;6137162;19;20507;-66
2022/11/27 07:14:50;;;;;;;6.25;2.75;;;4.30;99.90;;;;;;6136818;19;19914;-67
2022/11/27 07:16:54;;;;;;;8.50;2.70;;;4.10;99.90;;;;;;6137854;19;20039;-66
2022/11/27 07:19:03;;;;;;;10.07;2.88;;;4.10;99.90;;;;;;6138332;19;19918;-66
2022/11/27 07:21:07;;;;;;;6.50;2.60;;;3.80;99.90;;;;;;6133865;19;19922;-66
2022/11/27 07:23:14;;;;;;;8.35;2.75;;;4.40;99.90;;;;;;6136081;19;19922;-66
2022/11/27 07:25:18;;;;;;;5.05;2.67;;;4.10;99.90;;;;;;6135662;19;19926;-66
2022/11/27 07:27:22;;;;;;;8.13;3.58;;;;;;;;;;6137003;19;19925;-67
2022/11/27 07:29:26;;;;;;;8.57;2.83;;;3.80;99.90;;;;;;6136197;19;19922;-66
2022/11/27 07:31:31;;;;;;;4.75;2.40;;;3.90;99.90;;;;;;6136445;19;19914;-67
2022/11/27 07:33:35;;;;;;;13.05;2.95;;;3.90;99.90;;;;;;6137614;19;19926;-66
2022/11/27 07:35:39;;;;;;;8.50;3.25;;;3.80;99.90;;;;;;6136686;19;20333;-66
2022/11/27 07:37:43;;;;;;;6.03;2.90;;;;;;;;;;6137075;19;19919;-67
2022/11/27 07:39:50;;;;;;;4.72;2.80;;;4.00;99.90;;;;;;6137486;19;19918;-67
2022/11/27 07:41:54;;;;;;;5.68;2.47;;;;;;;;;;6133702;19;19922;-67
2022/11/27 07:43:58;;;;;;;6.90;3.20;;;4.50;99.90;;;;;;6135505;19;19915;-66
2022/11/27 07:46:05;;;;;;;7.90;2.97;;;3.80;99.90;;;;;;6137223;19;19926;-67
2022/11/27 07:48:09;;;;;;;7.72;2.92;;;3.80;99.90;;;;;;6134502;19;20347;-67
2022/11/27 07:50:14;;;;;;;4.78;2.65;;;4.10;99.90;;;;;;6139994;19;20380;-66
2022/11/27 07:52:18;;;;;;;7.65;2.75;;;4.20;99.90;;;;;;6142470;19;19933;-66
2022/11/27 07:54:22;;;;;;;4.70;2.75;;;;;;;;;;6139454;19;19922;-67
2022/11/27 07:56:29;;;;;;;6.43;2.85;;;4.40;99.90;;;;;;6136222;19;19922;-66
2022/11/27 07:58:33;;;;;;;5.32;2.28;;;4.00;99.90;;;;;;6135196;19;19926;-66
2022/11/27 08:00:37;;;;;;;12.48;3.28;;;4.10;99.90;;;;;;6129593;19;20062;-67
2022/11/27 08:02:41;;;;;;;6.13;2.78;;;4.40;99.90;;;;;;6130058;19;19951;-67
2022/11/27 08:04:45;;;;;;;3.58;2.25;;;;;;;;;;6130120;19;19934;-67
2022/11/27 08:06:50;;;;;;;8.07;2.80;;;4.30;99.90;;;;;;6129873;19;20381;-66
2022/11/27 08:08:55;;;;;;;9.15;3.00;;;4.30;99.90;;;;;;6129124;19;19918;-66
2022/11/27 08:10:59;;;;;;;9.98;3.35;;;3.90;99.90;;;;;;6130428;19;19932;-67
2022/11/27 08:13:06;;;;;;;5.50;2.85;;;4.80;99.90;;;;;;6127137;19;19926;-65
2022/11/27 08:15:12;;;;;;;7.93;2.90;;;4.60;99.90;;;;;;6129785;19;19918;-66
2022/11/27 08:17:16;;;;;;;8.32;2.78;;;;;;;;;;6130420;19;19919;-66
2022/11/27 08:19:20;;;;;;;8.85;3.15;;;;;;;;;;6129450;19;19922;-66
2022/11/27 08:21:24;;;;;;;6.47;2.88;;;4.50;99.90;;;;;;6127209;19;19938;-66
2022/11/27 08:23:28;;;;;;;5.35;2.45;;;4.60;99.90;;;;;;6128476;19;19922;-65
2022/11/27 08:25:32;;;;;;;7.22;2.78;;;;;;;;;;6127826;19;19919;-66
2022/11/27 08:27:36;;;;;;;7.15;2.97;;;4.70;99.90;;;;;;6127842;19;21072;-66
2022/11/27 08:29:43;;;;;;;7.82;2.65;;;4.10;99.90;;;;;;6128456;19;19951;-68
2022/11/27 08:31:47;;;;;;;8.10;2.78;;;4.70;99.90;;;;;;6129199;19;19918;-66
2022/11/27 08:33:51;;;;;;;6.40;2.83;;;4.40;99.90;;;;;;6127433;19;19946;-66
2022/11/27 08:35:55;;;;;;;5.95;2.72;;;;;;;;;;6128536;19;19929;-67
2022/11/27 08:37:59;;;;;;;6.90;3.40;;;;;;;;;;6128180;19;19935;-67
2022/11/27 08:40:03;;;;;;;4.45;2.53;;;5.00;99.90;;;;;;6129013;19;19945;-66
2022/11/27 08:42:07;;;;;;;5.32;2.60;;;4.50;99.90;;;;;;6125570;19;20358;-67
2022/11/27 08:44:11;;;;;;;7.30;2.65;;;4.80;99.90;;;;;;6128791;19;20588;-66
2022/11/27 08:46:18;;;;;;;6.97;2.63;;;4.70;99.90;;;;;;6128162;19;19918;-67
2022/11/27 08:48:22;;;;;;;5.20;2.90;;;4.90;99.90;;;;;;6127483;19;19944;-66
2022/11/27 08:50:27;;;;;;;6.85;2.75;;;4.70;99.90;;;;;;6127152;19;22818;-67
2022/11/27 08:52:31;;;;;;;8.68;3.28;;;4.40;99.90;;;;;;6127791;19;19935;-67
2022/11/27 08:54:35;;;;;;;4.53;2.45;;;;;;;;;;6125692;19;20781;-66
2022/11/27 08:56:39;;;;;;;4.63;2.72;;;4.90;99.90;;;;;;6129633;19;20253;-68
2022/11/27 08:58:43;;;;;;;7.72;2.80;;;;;;;;;;6128240;19;19923;-67
2022/11/27 09:00:47;;;;;;;5.88;2.63;;;4.60;99.90;;;;;;6127327;19;20345;-68
2022/11/27 09:02:53;;;;;;;7.88;2.92;;;4.60;99.90;;;;;;6123955;19;19918;-68
2022/11/27 09:04:57;;;;;;;7.68;3.38;;;4.80;99.90;;;;;;6128373;19;19939;-67
2022/11/27 09:07:01;;;;;;;4.07;2.33;;;4.60;99.90;;;;;;6127483;19;19923;-66
2022/11/27 09:09:07;;;;;;;6.93;3.22;;;4.80;99.90;;;;;;6127579;19;19950;-67
2022/11/27 09:11:11;;;;;;;7.35;2.90;;;4.40;99.90;;;;;;6131699;19;19915;-68
2022/11/27 09:13:15;;;;;;;7.28;2.72;;;4.60;99.90;;;;;;6109809;19;19918;-66
2022/11/27 09:15:20;;;;;;;6.85;3.10;;;4.70;99.90;;;;;;6126843;19;19918;-67
2022/11/27 09:17:23;;;;;;;7.53;3.05;;;4.90;99.90;;;;;;6126110;19;20015;-67
2022/11/27 09:19:30;;;;;;;8.10;2.88;;;5.10;99.90;;;;;;6125704;19;20413;-67
2022/11/27 09:21:34;;;;;;;6.22;3.10;;;4.50;99.90;;;;;;6127792;19;20277;-68
2022/11/27 09:23:39;;;;;;;5.32;2.67;;;4.70;99.90;;;;;;6127834;19;19946;-67
2022/11/27 09:25:42;;;;;;;8.38;3.00;;;4.70;99.90;;;;;;6129432;19;19926;-67
2022/11/27 09:27:46;;;;;;;6.80;2.65;;;4.70;99.90;;;;;;6126157;19;19942;-66
2022/11/27 09:29:51;;;;;;;7.10;2.88;;;4.40;99.90;;;;;;6128644;19;20384;-66
2022/11/27 09:31:54;;;;;;;6.85;3.38;;;4.70;99.90;;;;;;6127061;19;19934;-67
2022/11/27 09:34:00;;;;;;;6.72;2.63;;;5.20;99.90;;;;;;6125900;19;19922;-67
2022/11/27 09:36:09;;;;;;;7.32;3.10;;;4.90;99.90;;;;;;6127052;19;19927;-67
2022/11/27 09:38:14;;;;;;;6.63;2.97;;;;;;;;;;6127839;19;19925;-66
2022/11/27 09:40:19;;;;;;;4.80;2.65;;;4.80;99.90;;;;;;6128574;19;19970;-66
2022/11/27 09:42:47;;;;;;;5.50;2.97;;;4.70;99.90;;;;;;6126056;19;19922;-66
2022/11/27 09:44:56;;;;;;;6.40;3.13;;;4.90;99.90;;;;;;6122596;19;19926;-67
2022/11/27 09:47:06;;;;;;;8.50;3.30;;;5.10;99.90;;;;;;6124084;19;19926;-68
2022/11/27 09:49:19;;;;;;;6.90;2.90;;;4.90;99.90;;;;;;6125928;19;19992;-68
2022/11/27 09:51:35;;;;;;;6.03;2.72;;;5.20;99.90;;;;;;6123437;19;19926;-67
2022/11/27 09:53:49;;;;;;;6.65;2.65;;;4.80;99.90;;;;;;6127789;19;20376;-68
2022/11/27 09:55:56;;;;;;;8.70;3.08;;;5.10;99.90;;;;;;6127436;19;20283;-68
2022/11/27 09:58:06;;;;;;;8.27;3.05;;;5.10;99.90;;;;;;6126096;19;20368;-67
2022/11/27 10:00:17;;;;;;;10.85;3.30;;;5.10;99.90;;;;;;6124923;19;19934;-68
2022/11/27 10:02:26;;;;;;;6.70;3.38;;;5.40;99.90;;;;;;6125831;19;20284;-67
2022/11/27 10:04:30;;;;;;;6.63;2.55;;;;;;;;;;6127428;19;19919;-67
2022/11/27 10:06:46;;;;;;;7.20;2.90;;;5.10;99.90;;;;;;6127863;19;19943;-66
2022/11/27 10:09:03;;;;;;;7.82;2.97;;;4.70;99.90;;;;;;6126395;19;19919;-68
2022/11/27 10:11:18;;;;;;;7.15;3.15;;;5.40;99.90;;;;;;6126317;19;19922;-67
2022/11/27 10:13:40;;;;;;;4.82;2.45;;;5.30;99.90;;;;;;6124671;19;19921;-67
2022/11/27 10:15:49;;;;;;;5.60;2.80;;;5.00;99.90;;;;;;6129503;19;19919;-67
2022/11/27 10:17:57;;;;;;;;;;;5.30;99.90;;;;;;6126973;19;19927;-67
2022/11/27 10:20:12;;;;;;;6.55;2.78;;;4.50;99.90;;;;;;6127171;19;19914;-67
2022/11/27 10:22:25;;;;;;;9.40;3.65;;;4.50;99.90;;;;;;6122635;19;19922;-67
2022/11/27 10:24:39;;;;;;;6.80;3.28;;;5.10;99.90;;;;;;6124474;19;19942;-66
2022/11/27 10:26:47;;;;;;;7.40;3.30;;;5.10;99.90;;;;;;6120686;19;19923;-67
2022/11/27 10:28:58;;;;;;;5.53;3.03;;;5.10;99.90;;;;;;6125212;19;19926;-67
2022/11/27 10:31:06;;;;;;;12.45;3.90;;;4.80;99.90;;;;;;6125653;19;19918;-67
2022/11/27 10:33:18;;;;;;;5.18;2.75;;;4.90;99.90;;;;;;6128098;19;19926;-67
2022/11/27 10:35:25;;;;;;;8.82;3.30;;;5.40;99.90;;;;;;6117922;19;20018;-67
2022/11/27 10:37:39;;;;;;;9.27;3.15;;;4.80;99.90;;;;;;6126458;19;19949;-67
2022/11/27 10:39:49;;;;;;;10.50;3.65;;;5.00;99.90;;;;;;6127554;19;19939;-67
2022/11/27 10:41:58;;;;;;;8.00;3.30;;;4.90;99.90;;;;;;6126534;19;19919;-67
2022/11/27 10:44:25;;;;;;;4.45;2.70;;;4.90;99.90;;;;;;6127071;19;20351;-68
2022/11/27 10:46:31;;;;;;;6.85;2.83;;;5.10;99.90;;;;;;6124872;19;19939;-68
2022/11/27 10:48:35;;;;;;;13.43;3.50;;;4.70;99.90;;;;;;6123536;19;19922;-67
2022/11/27 10:50:40;;;;;;;9.68;2.92;;;4.90;99.90;;;;;;6123964;19;19926;-67
2022/11/27 10:52:54;;;;;;;6.18;3.17;;;4.80;99.90;;;;;;6120792;19;19944;-67
2022/11/27 10:55:03;;;;;;;7.15;2.60;;;4.90;99.90;;;;;;6123662;19;19933;-67
2022/11/27 10:57:30;;;;;;;5.18;3.17;;;5.10;99.90;;;;;;6124106;19;19929;-67
2022/11/27 10:59:39;;;;;;;9.80;3.63;;;4.80;99.90;;;;;;6126561;19;19943;-68
2022/11/27 11:01:45;;;;;;;6.72;3.15;;;4.70;99.90;;;;;;6125438;19;19943;-67
2022/11/27 11:03:49;;;;;;;7.82;2.95;;;5.20;99.90;;;;;;6126802;19;19926;-68
2022/11/27 11:05:59;;;;;;;8.07;3.97;;;4.90;99.90;;;;;;6125178;19;19932;-68
2022/11/27 11:08:15;;;;;;;8.48;3.00;;;4.90;99.90;;;;;;6124034;19;19922;-67
2022/11/27 11:10:27;;;;;;;6.90;2.67;;;4.70;99.90;;;;;;6125957;19;20265;-68
2022/11/27 11:12:32;;;;;;;7.25;3.50;;;5.20;99.90;;;;;;6127070;19;20348;-69
2022/11/27 11:14:36;;;;;;;6.53;3.53;;;5.00;99.90;;;;;;6120400;19;20036;-72
2022/11/27 11:16:45;;;;;;;6.28;3.13;;;5.00;99.90;;;;;;6124488;19;19939;-70
2022/11/27 11:18:50;;;;;;;8.68;3.50;;;5.10;99.90;;;;;;6124754;19;19926;-74